sensor_id;sensor_type;location;lat;lon;timestamp;temperature;humidity
75170;SHT31;63749;49.186;9.222;2023-08-12T00:01:04;19.14;89.56
75170;SHT31;63749;49.186;9.222;2023-08-12T00:03:29;19.11;89.62
75170;SHT31;63749;49.186;9.222;2023-08-12T00:05:54;19.09;89.58
75170;SHT31;63749;49.186;9.222;2023-08-12T00:08:21;19.08;89.84
75170;SHT31;63749;49.186;9.222;2023-08-12T00:10:47;19.11;89.94
75170;SHT31;63749;49.186;9.222;2023-08-12T00:13:12;19.08;89.85
75170;SHT31;63749;49.186;9.222;2023-08-12T00:15:42;19.05;89.85
75170;SHT31;63749;49.186;9.222;2023-08-12T00:18:08;19.09;89.73
75170;SHT31;63749;49.186;9.222;2023-08-12T00:20:34;19.16;90.56
75170;SHT31;63749;49.186;9.222;2023-08-12T00:22:59;19.18;90.56
75170;SHT31;63749;49.186;9.222;2023-08-12T00:25:24;19.19;90.76
75170;SHT31;63749;49.186;9.222;2023-08-12T00:27:50;19.19;90.60
75170;SHT31;63749;49.186;9.222;2023-08-12T00:30:15;19.19;90.64
75170;SHT31;63749;49.186;9.222;2023-08-12T00:32:41;19.11;90.64
75170;SHT31;63749;49.186;9.222;2023-08-12T00:35:06;19.01;90.91
75170;SHT31;63749;49.186;9.222;2023-08-12T00:37:32;19.02;91.00
75170;SHT31;63749;49.186;9.222;2023-08-12T00:39:57;18.98;91.22
75170;SHT31;63749;49.186;9.222;2023-08-12T00:42:22;18.97;91.44
75170;SHT31;63749;49.186;9.222;2023-08-12T00:44:48;18.91;91.40
75170;SHT31;63749;49.186;9.222;2023-08-12T00:47:13;18.87;91.41
75170;SHT31;63749;49.186;9.222;2023-08-12T00:49:40;18.83;91.59
75170;SHT31;63749;49.186;9.222;2023-08-12T00:52:06;18.83;91.74
75170;SHT31;63749;49.186;9.222;2023-08-12T00:54:31;18.75;91.79
75170;SHT31;63749;49.186;9.222;2023-08-12T00:56:57;18.70;91.72
75170;SHT31;63749;49.186;9.222;2023-08-12T00:59:23;18.72;91.69
75170;SHT31;63749;49.186;9.222;2023-08-12T01:01:49;18.68;91.56
75170;SHT31;63749;49.186;9.222;2023-08-12T01:04:14;18.65;91.59
75170;SHT31;63749;49.186;9.222;2023-08-12T01:06:40;18.64;91.51
75170;SHT31;63749;49.186;9.222;2023-08-12T01:09:06;18.57;91.68
75170;SHT31;63749;49.186;9.222;2023-08-12T01:16:32;18.39;92.16
75170;SHT31;63749;49.186;9.222;2023-08-12T01:18:59;18.39;92.30
75170;SHT31;63749;49.186;9.222;2023-08-12T01:21:29;18.44;92.71
75170;SHT31;63749;49.186;9.222;2023-08-12T01:23:55;18.40;92.79
75170;SHT31;63749;49.186;9.222;2023-08-12T01:26:20;18.46;92.80
75170;SHT31;63749;49.186;9.222;2023-08-12T01:28:46;18.47;92.85
75170;SHT31;63749;49.186;9.222;2023-08-12T01:31:20;18.46;92.73
75170;SHT31;63749;49.186;9.222;2023-08-12T01:34:11;18.44;92.74
75170;SHT31;63749;49.186;9.222;2023-08-12T01:36:38;18.43;92.71
75170;SHT31;63749;49.186;9.222;2023-08-12T01:39:05;18.41;92.74
75170;SHT31;63749;49.186;9.222;2023-08-12T01:41:31;18.46;92.72
75170;SHT31;63749;49.186;9.222;2023-08-12T01:43:56;18.49;92.52
75170;SHT31;63749;49.186;9.222;2023-08-12T01:46:22;18.50;92.47
75170;SHT31;63749;49.186;9.222;2023-08-12T01:48:47;18.51;92.30
75170;SHT31;63749;49.186;9.222;2023-08-12T01:51:13;18.53;92.18
75170;SHT31;63749;49.186;9.222;2023-08-12T01:53:38;18.53;92.15
75170;SHT31;63749;49.186;9.222;2023-08-12T01:56:04;18.56;92.07
75170;SHT31;63749;49.186;9.222;2023-08-12T01:58:29;18.54;91.99
75170;SHT31;63749;49.186;9.222;2023-08-12T02:00:54;18.58;91.91
75170;SHT31;63749;49.186;9.222;2023-08-12T02:03:19;18.64;91.79
75170;SHT31;63749;49.186;9.222;2023-08-12T02:05:45;18.70;91.65
75170;SHT31;63749;49.186;9.222;2023-08-12T02:08:10;18.72;91.53
75170;SHT31;63749;49.186;9.222;2023-08-12T02:10:35;18.74;91.39
75170;SHT31;63749;49.186;9.222;2023-08-12T02:13:01;18.83;91.19
75170;SHT31;63749;49.186;9.222;2023-08-12T02:15:28;18.80;91.07
75170;SHT31;63749;49.186;9.222;2023-08-12T02:17:53;18.80;91.10
75170;SHT31;63749;49.186;9.222;2023-08-12T02:20:18;18.77;91.16
75170;SHT31;63749;49.186;9.222;2023-08-12T02:22:44;18.75;91.23
75170;SHT31;63749;49.186;9.222;2023-08-12T02:25:09;18.67;91.41
75170;SHT31;63749;49.186;9.222;2023-08-12T02:27:34;18.70;91.45
75170;SHT31;63749;49.186;9.222;2023-08-12T02:30:00;18.71;91.44
75170;SHT31;63749;49.186;9.222;2023-08-12T02:32:25;18.71;91.43
75170;SHT31;63749;49.186;9.222;2023-08-12T02:34:51;18.75;91.30
75170;SHT31;63749;49.186;9.222;2023-08-12T02:37:16;18.78;91.25
75170;SHT31;63749;49.186;9.222;2023-08-12T02:39:41;18.80;91.16
75170;SHT31;63749;49.186;9.222;2023-08-12T02:42:07;18.80;91.04
75170;SHT31;63749;49.186;9.222;2023-08-12T02:44:32;18.83;91.04
75170;SHT31;63749;49.186;9.222;2023-08-12T02:46:57;18.85;91.01
75170;SHT31;63749;49.186;9.222;2023-08-12T02:49:23;18.87;90.98
75170;SHT31;63749;49.186;9.222;2023-08-12T02:51:48;18.89;90.79
75170;SHT31;63749;49.186;9.222;2023-08-12T02:54:13;18.91;90.88
75170;SHT31;63749;49.186;9.222;2023-08-12T02:56:39;18.88;90.93
75170;SHT31;63749;49.186;9.222;2023-08-12T02:59:05;18.87;90.94
75170;SHT31;63749;49.186;9.222;2023-08-12T03:01:30;18.81;91.25
75170;SHT31;63749;49.186;9.222;2023-08-12T03:03:55;18.83;91.10
75170;SHT31;63749;49.186;9.222;2023-08-12T03:06:21;18.87;91.05
75170;SHT31;63749;49.186;9.222;2023-08-12T03:08:46;18.91;90.91
75170;SHT31;63749;49.186;9.222;2023-08-12T03:11:12;18.97;90.84
75170;SHT31;63749;49.186;9.222;2023-08-12T03:13:37;18.91;91.10
75170;SHT31;63749;49.186;9.222;2023-08-12T03:16:02;18.85;91.25
75170;SHT31;63749;49.186;9.222;2023-08-12T03:18:28;18.85;91.31
75170;SHT31;63749;49.186;9.222;2023-08-12T03:20:53;18.78;91.97
75170;SHT31;63749;49.186;9.222;2023-08-12T03:23:18;18.80;91.59
75170;SHT31;63749;49.186;9.222;2023-08-12T03:25:44;18.78;91.49
75170;SHT31;63749;49.186;9.222;2023-08-12T03:28:11;18.81;91.26
75170;SHT31;63749;49.186;9.222;2023-08-12T03:30:36;18.84;91.49
75170;SHT31;63749;49.186;9.222;2023-08-12T03:33:02;18.89;91.26
75170;SHT31;63749;49.186;9.222;2023-08-12T03:35:27;18.91;91.09
75170;SHT31;63749;49.186;9.222;2023-08-12T03:37:53;18.95;91.05
75170;SHT31;63749;49.186;9.222;2023-08-12T03:40:19;18.95;91.04
75170;SHT31;63749;49.186;9.222;2023-08-12T03:42:44;18.94;91.07
75170;SHT31;63749;49.186;9.222;2023-08-12T03:45:10;18.94;90.92
75170;SHT31;63749;49.186;9.222;2023-08-12T03:47:35;18.94;90.90
75170;SHT31;63749;49.186;9.222;2023-08-12T03:50:00;18.91;90.81
75170;SHT31;63749;49.186;9.222;2023-08-12T03:52:26;18.88;90.83
75170;SHT31;63749;49.186;9.222;2023-08-12T03:54:51;18.83;90.95
75170;SHT31;63749;49.186;9.222;2023-08-12T03:57:18;18.81;90.96
75170;SHT31;63749;49.186;9.222;2023-08-12T03:59:43;18.75;91.02
75170;SHT31;63749;49.186;9.222;2023-08-12T04:02:08;18.72;91.29
75170;SHT31;63749;49.186;9.222;2023-08-12T04:04:34;18.65;91.39
75170;SHT31;63749;49.186;9.222;2023-08-12T04:06:59;18.61;91.40
75170;SHT31;63749;49.186;9.222;2023-08-12T04:09:25;18.60;91.31
75170;SHT31;63749;49.186;9.222;2023-08-12T04:11:51;18.56;91.63
75170;SHT31;63749;49.186;9.222;2023-08-12T04:14:16;18.54;91.65
75170;SHT31;63749;49.186;9.222;2023-08-12T04:16:41;18.54;91.62
75170;SHT31;63749;49.186;9.222;2023-08-12T04:19:07;18.54;91.50
75170;SHT31;63749;49.186;9.222;2023-08-12T04:21:32;18.53;91.68
75170;SHT31;63749;49.186;9.222;2023-08-12T04:23:57;18.53;91.72
75170;SHT31;63749;49.186;9.222;2023-08-12T04:26:23;18.57;91.77
75170;SHT31;63749;49.186;9.222;2023-08-12T04:28:48;18.60;91.71
75170;SHT31;63749;49.186;9.222;2023-08-12T04:31:13;18.61;91.72
75170;SHT31;63749;49.186;9.222;2023-08-12T04:33:39;18.67;91.47
75170;SHT31;63749;49.186;9.222;2023-08-12T04:36:04;18.83;91.05
75170;SHT31;63749;49.186;9.222;2023-08-12T04:38:30;18.83;90.80
75170;SHT31;63749;49.186;9.222;2023-08-12T04:40:56;18.80;91.12
75170;SHT31;63749;49.186;9.222;2023-08-12T04:43:22;18.80;91.23
75170;SHT31;63749;49.186;9.222;2023-08-12T04:45:47;18.84;91.41
75170;SHT31;63749;49.186;9.222;2023-08-12T04:48:13;18.84;91.26
75170;SHT31;63749;49.186;9.222;2023-08-12T04:50:38;18.89;91.24
75170;SHT31;63749;49.186;9.222;2023-08-12T04:53:05;18.91;91.08
75170;SHT31;63749;49.186;9.222;2023-08-12T04:55:30;18.99;90.97
75170;SHT31;63749;49.186;9.222;2023-08-12T04:57:56;19.01;91.07
75170;SHT31;63749;49.186;9.222;2023-08-12T05:00:22;18.99;91.10
75170;SHT31;63749;49.186;9.222;2023-08-12T05:02:48;19.05;91.06
75170;SHT31;63749;49.186;9.222;2023-08-12T05:05:14;19.14;90.83
75170;SHT31;63749;49.186;9.222;2023-08-12T05:07:39;19.15;90.76
75170;SHT31;63749;49.186;9.222;2023-08-12T05:10:05;19.19;91.04
75170;SHT31;63749;49.186;9.222;2023-08-12T05:12:30;19.22;90.76
75170;SHT31;63749;49.186;9.222;2023-08-12T05:14:56;19.30;90.31
75170;SHT31;63749;49.186;9.222;2023-08-12T05:17:21;19.36;89.96
75170;SHT31;63749;49.186;9.222;2023-08-12T05:19:47;19.43;89.79
75170;SHT31;63749;49.186;9.222;2023-08-12T05:22:12;19.50;89.57
75170;SHT31;63749;49.186;9.222;2023-08-12T05:24:37;19.57;89.44
75170;SHT31;63749;49.186;9.222;2023-08-12T05:27:03;19.65;89.27
75170;SHT31;63749;49.186;9.222;2023-08-12T05:29:30;19.73;89.13
75170;SHT31;63749;49.186;9.222;2023-08-12T05:31:55;19.77;88.71
75170;SHT31;63749;49.186;9.222;2023-08-12T05:34:21;19.80;88.47
75170;SHT31;63749;49.186;9.222;2023-08-12T05:36:46;19.83;88.41
75170;SHT31;63749;49.186;9.222;2023-08-12T05:39:11;19.90;88.22
75170;SHT31;63749;49.186;9.222;2023-08-12T05:41:37;19.96;87.83
75170;SHT31;63749;49.186;9.222;2023-08-12T05:44:03;19.91;87.96
75170;SHT31;63749;49.186;9.222;2023-08-12T05:46:28;19.91;87.90
75170;SHT31;63749;49.186;9.222;2023-08-12T05:48:53;19.88;87.95
75170;SHT31;63749;49.186;9.222;2023-08-12T05:51:19;19.94;87.97
75170;SHT31;63749;49.186;9.222;2023-08-12T05:53:44;20.00;87.82
75170;SHT31;63749;49.186;9.222;2023-08-12T05:56:10;20.08;87.50
75170;SHT31;63749;49.186;9.222;2023-08-12T05:58:35;20.11;87.35
75170;SHT31;63749;49.186;9.222;2023-08-12T06:01:00;20.25;87.09
75170;SHT31;63749;49.186;9.222;2023-08-12T06:03:26;20.22;87.13
75170;SHT31;63749;49.186;9.222;2023-08-12T06:05:51;20.17;87.32
75170;SHT31;63749;49.186;9.222;2023-08-12T06:08:16;20.14;87.54
75170;SHT31;63749;49.186;9.222;2023-08-12T06:10:42;20.27;86.95
75170;SHT31;63749;49.186;9.222;2023-08-12T06:13:08;20.32;86.90
75170;SHT31;63749;49.186;9.222;2023-08-12T06:15:33;20.37;86.79
75170;SHT31;63749;49.186;9.222;2023-08-12T06:18:00;20.38;86.57
75170;SHT31;63749;49.186;9.222;2023-08-12T06:20:25;20.42;86.55
75170;SHT31;63749;49.186;9.222;2023-08-12T06:22:51;20.48;86.43
75170;SHT31;63749;49.186;9.222;2023-08-12T06:25:17;20.51;86.19
75170;SHT31;63749;49.186;9.222;2023-08-12T06:27:43;20.72;85.68
75170;SHT31;63749;49.186;9.222;2023-08-12T06:30:09;20.86;85.38
75170;SHT31;63749;49.186;9.222;2023-08-12T06:32:35;21.07;84.66
75170;SHT31;63749;49.186;9.222;2023-08-12T06:35:01;21.19;84.09
75170;SHT31;63749;49.186;9.222;2023-08-12T06:37:26;21.27;83.65
75170;SHT31;63749;49.186;9.222;2023-08-12T06:39:51;21.20;84.39
75170;SHT31;63749;49.186;9.222;2023-08-12T06:42:17;21.11;85.22
75170;SHT31;63749;49.186;9.222;2023-08-12T06:44:42;21.07;85.02
75170;SHT31;63749;49.186;9.222;2023-08-12T06:47:07;21.02;85.24
75170;SHT31;63749;49.186;9.222;2023-08-12T06:49:33;21.04;85.51
75170;SHT31;63749;49.186;9.222;2023-08-12T06:51:58;21.07;85.54
75170;SHT31;63749;49.186;9.222;2023-08-12T06:54:23;21.24;85.07
75170;SHT31;63749;49.186;9.222;2023-08-12T06:56:50;21.41;84.52
75170;SHT31;63749;49.186;9.222;2023-08-12T06:59:15;21.71;83.52
75170;SHT31;63749;49.186;9.222;2023-08-12T07:01:40;21.74;82.55
75170;SHT31;63749;49.186;9.222;2023-08-12T07:04:06;21.68;82.52
75170;SHT31;63749;49.186;9.222;2023-08-12T07:06:31;21.91;82.05
75170;SHT31;63749;49.186;9.222;2023-08-12T07:08:57;22.20;81.10
75170;SHT31;63749;49.186;9.222;2023-08-12T07:11:22;22.09;81.10
75170;SHT31;63749;49.186;9.222;2023-08-12T07:13:47;22.17;80.76
75170;SHT31;63749;49.186;9.222;2023-08-12T07:16:13;22.43;79.80
75170;SHT31;63749;49.186;9.222;2023-08-12T07:18:38;22.32;79.74
75170;SHT31;63749;49.186;9.222;2023-08-12T07:21:04;22.43;79.38
75170;SHT31;63749;49.186;9.222;2023-08-12T07:23:29;22.81;78.57
75170;SHT31;63749;49.186;9.222;2023-08-12T07:25:54;23.11;77.19
75170;SHT31;63749;49.186;9.222;2023-08-12T07:28:20;23.32;76.66
75170;SHT31;63749;49.186;9.222;2023-08-12T07:30:45;23.69;75.72
75170;SHT31;63749;49.186;9.222;2023-08-12T07:33:11;23.83;74.83
75170;SHT31;63749;49.186;9.222;2023-08-12T07:35:36;23.99;75.15
75170;SHT31;63749;49.186;9.222;2023-08-12T07:38:01;24.01;74.93
75170;SHT31;63749;49.186;9.222;2023-08-12T07:40:27;24.14;74.63
75170;SHT31;63749;49.186;9.222;2023-08-12T07:42:52;24.17;74.11
75170;SHT31;63749;49.186;9.222;2023-08-12T07:45:17;24.28;73.43
75170;SHT31;63749;49.186;9.222;2023-08-12T07:47:43;24.37;73.32
75170;SHT31;63749;49.186;9.222;2023-08-12T07:50:09;24.49;72.40
75170;SHT31;63749;49.186;9.222;2023-08-12T07:52:34;24.59;72.49
75170;SHT31;63749;49.186;9.222;2023-08-12T07:55:00;24.45;72.34
75170;SHT31;63749;49.186;9.222;2023-08-12T07:57:26;24.30;72.93
75170;SHT31;63749;49.186;9.222;2023-08-12T07:59:51;24.04;73.23
75170;SHT31;63749;49.186;9.222;2023-08-12T08:02:17;24.07;73.64
75170;SHT31;63749;49.186;9.222;2023-08-12T08:04:42;24.04;73.15
75170;SHT31;63749;49.186;9.222;2023-08-12T08:07:07;24.14;73.55
75170;SHT31;63749;49.186;9.222;2023-08-12T08:09:34;23.99;73.31
75170;SHT31;63749;49.186;9.222;2023-08-12T08:11:59;24.11;73.52
75170;SHT31;63749;49.186;9.222;2023-08-12T08:14:26;24.45;72.74
75170;SHT31;63749;49.186;9.222;2023-08-12T08:16:51;24.61;72.71
75170;SHT31;63749;49.186;9.222;2023-08-12T08:19:17;24.92;71.66
75170;SHT31;63749;49.186;9.222;2023-08-12T08:21:43;25.15;70.59
75170;SHT31;63749;49.186;9.222;2023-08-12T08:24:09;25.33;70.26
75170;SHT31;63749;49.186;9.222;2023-08-12T08:26:36;25.50;70.30
75170;SHT31;63749;49.186;9.222;2023-08-12T08:29:01;25.64;69.26
75170;SHT31;63749;49.186;9.222;2023-08-12T08:31:27;25.88;67.47
75170;SHT31;63749;49.186;9.222;2023-08-12T08:33:52;25.96;67.57
75170;SHT31;63749;49.186;9.222;2023-08-12T08:36:17;25.58;67.92
75170;SHT31;63749;49.186;9.222;2023-08-12T08:38:43;25.63;68.27
75170;SHT31;63749;49.186;9.222;2023-08-12T08:41:09;26.01;67.16
75170;SHT31;63749;49.186;9.222;2023-08-12T08:43:36;25.96;67.11
75170;SHT31;63749;49.186;9.222;2023-08-12T08:46:02;25.80;67.24
75170;SHT31;63749;49.186;9.222;2023-08-12T08:48:27;25.84;67.16
75170;SHT31;63749;49.186;9.222;2023-08-12T08:50:53;25.82;67.65
75170;SHT31;63749;49.186;9.222;2023-08-12T08:53:19;25.65;68.76
75170;SHT31;63749;49.186;9.222;2023-08-12T08:55:46;25.58;68.79
75170;SHT31;63749;49.186;9.222;2023-08-12T08:58:12;25.46;69.36
75170;SHT31;63749;49.186;9.222;2023-08-12T09:00:38;25.47;70.08
75170;SHT31;63749;49.186;9.222;2023-08-12T09:03:05;25.61;70.22
75170;SHT31;63749;49.186;9.222;2023-08-12T09:05:32;25.96;68.59
75170;SHT31;63749;49.186;9.222;2023-08-12T09:07:59;26.26;67.92
75170;SHT31;63749;49.186;9.222;2023-08-12T09:10:26;26.45;67.60
75170;SHT31;63749;49.186;9.222;2023-08-12T09:12:53;26.66;66.93
75170;SHT31;63749;49.186;9.222;2023-08-12T09:15:19;26.83;65.57
75170;SHT31;63749;49.186;9.222;2023-08-12T09:17:45;27.05;64.22
75170;SHT31;63749;49.186;9.222;2023-08-12T09:20:10;27.27;62.52
75170;SHT31;63749;49.186;9.222;2023-08-12T09:22:42;27.30;62.27
75170;SHT31;63749;49.186;9.222;2023-08-12T09:25:09;27.32;61.80
75170;SHT31;63749;49.186;9.222;2023-08-12T09:27:36;27.38;61.64
75170;SHT31;63749;49.186;9.222;2023-08-12T09:30:03;27.89;59.98
75170;SHT31;63749;49.186;9.222;2023-08-12T09:32:29;27.66;60.46
75170;SHT31;63749;49.186;9.222;2023-08-12T09:34:55;27.70;60.66
75170;SHT31;63749;49.186;9.222;2023-08-12T09:37:22;28.07;60.00
75170;SHT31;63749;49.186;9.222;2023-08-12T09:39:48;28.02;60.38
75170;SHT31;63749;49.186;9.222;2023-08-12T09:42:15;27.99;60.07
75170;SHT31;63749;49.186;9.222;2023-08-12T09:44:41;27.69;61.25
75170;SHT31;63749;49.186;9.222;2023-08-12T09:47:07;27.86;61.26
75170;SHT31;63749;49.186;9.222;2023-08-12T09:49:34;27.80;61.27
75170;SHT31;63749;49.186;9.222;2023-08-12T09:52:00;27.78;61.60
75170;SHT31;63749;49.186;9.222;2023-08-12T09:54:27;27.92;60.91
75170;SHT31;63749;49.186;9.222;2023-08-12T09:56:57;27.89;61.00
75170;SHT31;63749;49.186;9.222;2023-08-12T09:59:24;28.18;61.13
75170;SHT31;63749;49.186;9.222;2023-08-12T10:01:52;28.34;60.49
75170;SHT31;63749;49.186;9.222;2023-08-12T10:04:21;28.61;59.65
75170;SHT31;63749;49.186;9.222;2023-08-12T10:06:47;28.87;60.13
75170;SHT31;63749;49.186;9.222;2023-08-12T10:09:15;29.33;59.15
75170;SHT31;63749;49.186;9.222;2023-08-12T10:11:42;29.29;57.67
75170;SHT31;63749;49.186;9.222;2023-08-12T10:14:09;29.50;56.86
75170;SHT31;63749;49.186;9.222;2023-08-12T10:16:35;29.88;55.00
75170;SHT31;63749;49.186;9.222;2023-08-12T10:19:02;30.11;55.70
75170;SHT31;63749;49.186;9.222;2023-08-12T10:21:29;29.91;54.44
75170;SHT31;63749;49.186;9.222;2023-08-12T10:23:57;29.92;56.67
75170;SHT31;63749;49.186;9.222;2023-08-12T10:26:24;30.25;55.51
75170;SHT31;63749;49.186;9.222;2023-08-12T10:28:49;30.17;53.96
75170;SHT31;63749;49.186;9.222;2023-08-12T10:31:15;30.43;52.97
75170;SHT31;63749;49.186;9.222;2023-08-12T10:33:41;30.42;53.13
75170;SHT31;63749;49.186;9.222;2023-08-12T10:36:07;30.33;54.75
75170;SHT31;63749;49.186;9.222;2023-08-12T10:38:33;30.01;55.26
75170;SHT31;63749;49.186;9.222;2023-08-12T10:41:21;30.24;53.50
75170;SHT31;63749;49.186;9.222;2023-08-12T10:46:22;30.00;52.38
75170;SHT31;63749;49.186;9.222;2023-08-12T10:49:04;30.22;53.00
75170;SHT31;63749;49.186;9.222;2023-08-12T10:54:18;30.65;51.87
75170;SHT31;63749;49.186;9.222;2023-08-12T10:57:04;30.90;51.43
75170;SHT31;63749;49.186;9.222;2023-08-12T11:04:57;31.28;51.25
75170;SHT31;63749;49.186;9.222;2023-08-12T11:07:37;31.55;49.85
75170;SHT31;63749;49.186;9.222;2023-08-12T11:12:34;31.69;50.78
75170;SHT31;63749;49.186;9.222;2023-08-12T11:15:01;31.69;49.48
75170;SHT31;63749;49.186;9.222;2023-08-12T11:17:34;31.68;51.39
75170;SHT31;63749;49.186;9.222;2023-08-12T11:20:01;31.66;50.77
75170;SHT31;63749;49.186;9.222;2023-08-12T11:22:30;31.74;50.63
75170;SHT31;63749;49.186;9.222;2023-08-12T11:24:55;31.86;49.63
75170;SHT31;63749;49.186;9.222;2023-08-12T11:27:22;32.30;48.90
75170;SHT31;63749;49.186;9.222;2023-08-12T11:29:49;32.34;49.23
75170;SHT31;63749;49.186;9.222;2023-08-12T11:32:15;32.70;49.13
75170;SHT31;63749;49.186;9.222;2023-08-12T11:34:41;32.84;48.51
75170;SHT31;63749;49.186;9.222;2023-08-12T11:37:07;33.22;48.23
75170;SHT31;63749;49.186;9.222;2023-08-12T11:39:32;33.41;47.49
75170;SHT31;63749;49.186;9.222;2023-08-12T11:41:58;33.46;47.52
75170;SHT31;63749;49.186;9.222;2023-08-12T11:44:23;33.74;46.77
75170;SHT31;63749;49.186;9.222;2023-08-12T11:46:49;34.29;45.68
75170;SHT31;63749;49.186;9.222;2023-08-12T11:49:15;34.14;46.19
75170;SHT31;63749;49.186;9.222;2023-08-12T11:51:42;33.22;48.68
75170;SHT31;63749;49.186;9.222;2023-08-12T11:54:09;32.78;48.68
75170;SHT31;63749;49.186;9.222;2023-08-12T11:56:34;32.01;50.28
75170;SHT31;63749;49.186;9.222;2023-08-12T11:59:00;31.72;50.75
75170;SHT31;63749;49.186;9.222;2023-08-12T12:01:25;31.27;51.76
75170;SHT31;63749;49.186;9.222;2023-08-12T12:03:53;30.57;52.43
75170;SHT31;63749;49.186;9.222;2023-08-12T12:06:29;30.00;53.92
75170;SHT31;63749;49.186;9.222;2023-08-12T12:08:54;29.67;55.10
75170;SHT31;63749;49.186;9.222;2023-08-12T12:11:20;29.36;56.12
75170;SHT31;63749;49.186;9.222;2023-08-12T12:13:45;29.19;57.42
75170;SHT31;63749;49.186;9.222;2023-08-12T12:16:12;28.91;59.21
75170;SHT31;63749;49.186;9.222;2023-08-12T12:18:38;28.74;59.80
75170;SHT31;63749;49.186;9.222;2023-08-12T12:21:04;28.45;60.20
75170;SHT31;63749;49.186;9.222;2023-08-12T12:23:30;28.41;61.34
75170;SHT31;63749;49.186;9.222;2023-08-12T12:26:03;27.72;67.65
75170;SHT31;63749;49.186;9.222;2023-08-12T12:28:28;27.08;70.75
75170;SHT31;63749;49.186;9.222;2023-08-12T12:30:54;27.31;71.51
75170;SHT31;63749;49.186;9.222;2023-08-12T12:33:20;27.52;70.04
75170;SHT31;63749;49.186;9.222;2023-08-12T12:35:45;27.79;69.73
75170;SHT31;63749;49.186;9.222;2023-08-12T12:38:11;27.96;69.02
75170;SHT31;63749;49.186;9.222;2023-08-12T12:40:36;28.17;68.62
75170;SHT31;63749;49.186;9.222;2023-08-12T12:43:03;28.14;68.97
75170;SHT31;63749;49.186;9.222;2023-08-12T12:45:28;28.28;69.25
75170;SHT31;63749;49.186;9.222;2023-08-12T12:47:54;28.43;67.85
75170;SHT31;63749;49.186;9.222;2023-08-12T12:50:19;28.71;66.47
75170;SHT31;63749;49.186;9.222;2023-08-12T12:52:45;29.67;63.69
75170;SHT31;63749;49.186;9.222;2023-08-12T12:55:10;30.08;62.08
75170;SHT31;63749;49.186;9.222;2023-08-12T12:57:35;30.02;61.49
75170;SHT31;63749;49.186;9.222;2023-08-12T13:00:01;29.59;61.95
75170;SHT31;63749;49.186;9.222;2023-08-12T13:02:26;29.05;63.01
75170;SHT31;63749;49.186;9.222;2023-08-12T13:04:52;28.79;63.44
75170;SHT31;63749;49.186;9.222;2023-08-12T13:07:17;28.54;64.28
75170;SHT31;63749;49.186;9.222;2023-08-12T13:09:43;28.45;64.42
75170;SHT31;63749;49.186;9.222;2023-08-12T13:12:08;28.83;63.82
75170;SHT31;63749;49.186;9.222;2023-08-12T13:14:34;29.61;61.54
75170;SHT31;63749;49.186;9.222;2023-08-12T13:16:59;29.71;61.23
75170;SHT31;63749;49.186;9.222;2023-08-12T13:19:24;30.01;59.86
75170;SHT31;63749;49.186;9.222;2023-08-12T13:21:50;30.40;58.83
75170;SHT31;63749;49.186;9.222;2023-08-12T13:24:15;31.13;56.78
75170;SHT31;63749;49.186;9.222;2023-08-12T13:26:40;31.68;55.74
75170;SHT31;63749;49.186;9.222;2023-08-12T13:29:06;30.96;56.91
75170;SHT31;63749;49.186;9.222;2023-08-12T13:31:31;30.28;58.46
75170;SHT31;63749;49.186;9.222;2023-08-12T13:33:57;30.24;58.68
75170;SHT31;63749;49.186;9.222;2023-08-12T13:36:22;29.64;60.23
75170;SHT31;63749;49.186;9.222;2023-08-12T13:38:48;29.45;60.86
75170;SHT31;63749;49.186;9.222;2023-08-12T13:41:13;29.39;61.08
75170;SHT31;63749;49.186;9.222;2023-08-12T13:43:39;29.34;61.09
75170;SHT31;63749;49.186;9.222;2023-08-12T13:46:04;29.39;61.28
75170;SHT31;63749;49.186;9.222;2023-08-12T13:48:29;29.29;61.27
75170;SHT31;63749;49.186;9.222;2023-08-12T13:50:55;29.46;61.12
75170;SHT31;63749;49.186;9.222;2023-08-12T13:53:21;29.85;59.92
75170;SHT31;63749;49.186;9.222;2023-08-12T13:55:46;30.97;57.36
75170;SHT31;63749;49.186;9.222;2023-08-12T13:58:11;30.62;57.86
75170;SHT31;63749;49.186;9.222;2023-08-12T14:00:37;31.79;55.36
75170;SHT31;63749;49.186;9.222;2023-08-12T14:03:02;34.04;49.92
75170;SHT31;63749;49.186;9.222;2023-08-12T14:05:27;35.67;47.01
75170;SHT31;63749;49.186;9.222;2023-08-12T14:07:53;34.58;48.89
75170;SHT31;63749;49.186;9.222;2023-08-12T14:10:18;35.94;46.39
75170;SHT31;63749;49.186;9.222;2023-08-12T14:12:44;35.26;47.17
75170;SHT31;63749;49.186;9.222;2023-08-12T14:15:14;34.11;49.65
75170;SHT31;63749;49.186;9.222;2023-08-12T14:17:40;36.83;44.62
75170;SHT31;63749;49.186;9.222;2023-08-12T14:20:06;37.85;42.67
75170;SHT31;63749;49.186;9.222;2023-08-12T14:22:34;38.39;41.51
75170;SHT31;63749;49.186;9.222;2023-08-12T14:24:59;38.57;41.40
75170;SHT31;63749;49.186;9.222;2023-08-12T14:27:25;37.90;42.75
75170;SHT31;63749;49.186;9.222;2023-08-12T14:29:50;38.68;40.72
75170;SHT31;63749;49.186;9.222;2023-08-12T14:32:15;38.04;42.55
75170;SHT31;63749;49.186;9.222;2023-08-12T14:34:43;37.95;42.15
75170;SHT31;63749;49.186;9.222;2023-08-12T14:37:11;37.88;42.15
75170;SHT31;63749;49.186;9.222;2023-08-12T14:39:36;36.09;46.09
75170;SHT31;63749;49.186;9.222;2023-08-12T14:42:02;37.40;43.40
75170;SHT31;63749;49.186;9.222;2023-08-12T14:44:29;37.42;44.29
75170;SHT31;63749;49.186;9.222;2023-08-12T14:46:56;38.06;42.41
75170;SHT31;63749;49.186;9.222;2023-08-12T14:49:21;35.85;46.50
75170;SHT31;63749;49.186;9.222;2023-08-12T14:51:46;36.69;44.50
75170;SHT31;63749;49.186;9.222;2023-08-12T14:54:12;34.86;47.92
75170;SHT31;63749;49.186;9.222;2023-08-12T14:56:37;34.08;49.59
75170;SHT31;63749;49.186;9.222;2023-08-12T14:59:02;32.80;52.98
75170;SHT31;63749;49.186;9.222;2023-08-12T15:01:29;31.82;54.63
75170;SHT31;63749;49.186;9.222;2023-08-12T15:03:54;30.96;57.70
75170;SHT31;63749;49.186;9.222;2023-08-12T15:06:21;30.29;58.80
75170;SHT31;63749;49.186;9.222;2023-08-12T15:08:46;29.82;59.45
75170;SHT31;63749;49.186;9.222;2023-08-12T15:11:12;29.46;60.84
75170;SHT31;63749;49.186;9.222;2023-08-12T15:13:38;29.29;61.74
75170;SHT31;63749;49.186;9.222;2023-08-12T15:16:04;28.89;63.30
75170;SHT31;63749;49.186;9.222;2023-08-12T15:18:30;28.60;64.08
75170;SHT31;63749;49.186;9.222;2023-08-12T15:20:55;28.23;65.34
75170;SHT31;63749;49.186;9.222;2023-08-12T15:23:21;28.00;65.67
75170;SHT31;63749;49.186;9.222;2023-08-12T15:25:46;27.80;66.30
75170;SHT31;63749;49.186;9.222;2023-08-12T15:28:12;27.55;66.83
75170;SHT31;63749;49.186;9.222;2023-08-12T15:30:38;27.42;67.10
75170;SHT31;63749;49.186;9.222;2023-08-12T15:33:04;27.18;68.46
75170;SHT31;63749;49.186;9.222;2023-08-12T15:35:29;26.50;75.18
75170;SHT31;63749;49.186;9.222;2023-08-12T15:37:55;25.26;81.71
75170;SHT31;63749;49.186;9.222;2023-08-12T15:40:20;24.11;86.82